createdAt,value
2023-04-17T00:02:45.092Z,23.75
2023-04-17T00:05:34.174Z,21.35
2023-04-17T00:08:23.047Z,24.15
2023-04-17T00:11:11.849Z,21.33
2023-04-17T00:14:00.596Z,22.58
2023-04-17T00:16:49.632Z,22.77
2023-04-17T00:19:39.718Z,24.17
2023-04-17T00:22:28.447Z,23.02
2023-04-17T00:25:17.263Z,22.50
2023-04-17T00:28:06.620Z,21.90
2023-04-17T00:30:55.663Z,24.00
2023-04-17T00:33:46.270Z,24.23
2023-04-17T00:36:36.412Z,23.58
2023-04-17T00:39:25.118Z,20.77
2023-04-17T00:42:13.822Z,20.17
2023-04-17T00:45:02.590Z,24.60
2023-04-17T00:47:52.971Z,21.50
2023-04-17T00:50:43.050Z,22.83
2023-04-17T00:53:34.265Z,23.83
2023-04-17T00:56:23.753Z,22.95
2023-04-17T00:59:13.987Z,21.48
2023-04-17T01:02:03.560Z,23.45
2023-04-17T01:04:52.567Z,22.55
2023-04-17T01:07:42.484Z,21.60
2023-04-17T01:10:33.201Z,22.08
2023-04-17T01:13:21.941Z,20.17
2023-04-17T01:16:10.913Z,21.83
2023-04-17T01:19:00.353Z,21.83
2023-04-17T01:21:49.269Z,20.23
2023-04-17T01:24:39.807Z,21.65
2023-04-17T01:27:28.750Z,25.40
2023-04-17T01:30:17.975Z,25.15
2023-04-17T01:33:28.219Z,24.17
2023-04-17T01:36:17.562Z,23.70
2023-04-17T01:39:08.098Z,23.48
2023-04-17T01:41:58.306Z,24.17
2023-04-17T01:44:47.065Z,21.58
2023-04-17T01:47:36.071Z,23.65
2023-04-17T01:50:24.906Z,25.90
2023-04-17T01:53:13.908Z,32.85
2023-04-17T01:56:03.191Z,33.38
2023-04-17T01:58:53.377Z,31.77
2023-04-17T02:01:42.157Z,22.50
2023-04-17T02:04:31.202Z,21.48
2023-04-17T02:07:19.923Z,21.55
2023-04-17T02:10:10.234Z,20.38
2023-04-17T02:12:58.931Z,21.63
2023-04-17T02:15:49.753Z,25.67
2023-04-17T02:18:38.577Z,23.25
2023-04-17T02:21:28.440Z,21.58
2023-04-17T02:24:18.765Z,25.00
2023-04-17T02:27:10.031Z,23.08
2023-04-17T02:29:58.714Z,22.25
2023-04-17T02:32:49.014Z,24.83
2023-04-17T02:35:37.705Z,23.33
2023-04-17T02:38:30.500Z,21.65
2023-04-17T02:41:19.262Z,20.90
2023-04-17T02:44:08.277Z,21.85
2023-04-17T02:46:57.122Z,23.10
2023-04-17T02:49:48.210Z,24.27
2023-04-17T02:52:36.890Z,23.35
2023-04-17T02:55:25.754Z,21.92
2023-04-17T02:58:14.589Z,21.00
2023-04-17T03:01:04.508Z,21.83
2023-04-17T03:03:58.012Z,22.63
2023-04-17T03:06:48.208Z,25.55
2023-04-17T03:09:37.133Z,23.95
2023-04-17T03:12:26.889Z,24.05
2023-04-17T03:15:15.682Z,23.92
2023-04-17T03:18:05.803Z,24.52
2023-04-17T03:20:55.281Z,24.00
2023-04-17T03:23:45.285Z,23.05
2023-04-17T03:26:34.527Z,22.63
2023-04-17T03:29:28.376Z,24.40
2023-04-17T03:32:17.505Z,23.25
2023-04-17T03:35:07.774Z,21.25
2023-04-17T03:37:56.466Z,22.15
2023-04-17T03:40:47.100Z,25.02
2023-04-17T03:43:36.082Z,24.65
2023-04-17T03:46:24.934Z,25.80
2023-04-17T03:49:14.910Z,21.60
2023-04-17T03:52:04.743Z,24.17
2023-04-17T03:54:54.477Z,22.67
2023-04-17T03:57:44.726Z,24.38
2023-04-17T04:00:33.881Z,27.00
2023-04-17T04:03:29.535Z,26.48
2023-04-17T04:06:20.447Z,26.05
2023-04-17T04:09:10.523Z,23.88
2023-04-17T04:11:59.862Z,26.35
2023-04-17T04:14:51.833Z,23.88
2023-04-17T04:17:41.250Z,23.38
2023-04-17T04:20:30.115Z,26.05
2023-04-17T04:23:31.153Z,26.23
2023-04-17T04:26:21.956Z,28.77
2023-04-17T04:29:14.836Z,24.98
2023-04-17T04:32:19.882Z,23.73
2023-04-17T04:35:11.778Z,25.92
2023-04-17T04:38:02.479Z,25.38
2023-04-17T04:40:53.826Z,27.70
2023-04-17T04:43:42.638Z,25.13
2023-04-17T04:46:32.197Z,23.48
2023-04-17T04:49:22.445Z,27.50
2023-04-17T04:52:11.111Z,25.63
2023-04-17T04:55:00.071Z,27.05
2023-04-17T04:57:48.822Z,22.95
2023-04-17T05:00:37.564Z,25.52
2023-04-17T05:03:27.129Z,25.67
2023-04-17T05:06:17.545Z,25.23
2023-04-17T05:09:11.004Z,25.33
2023-04-17T05:12:00.113Z,24.73
2023-04-17T05:14:49.239Z,21.92
2023-04-17T05:17:41.957Z,23.10
2023-04-17T05:20:32.159Z,24.17
2023-04-17T05:23:23.067Z,25.95
2023-04-17T05:26:13.169Z,21.33
2023-04-17T05:29:02.201Z,23.95
2023-04-17T05:31:53.350Z,23.80
2023-04-17T05:35:01.036Z,25.60
2023-04-17T05:37:52.022Z,24.02
2023-04-17T05:40:42.201Z,25.45
2023-04-17T05:43:32.223Z,23.83
2023-04-17T05:46:22.271Z,23.08
2023-04-17T05:49:11.237Z,24.92
2023-04-17T05:52:01.135Z,24.08
2023-04-17T05:54:50.388Z,22.38
2023-04-17T05:57:42.355Z,21.42
2023-04-17T06:00:31.963Z,23.30
2023-04-17T06:03:27.251Z,26.50
2023-04-17T06:06:26.604Z,22.73
2023-04-17T06:09:15.975Z,23.38
2023-04-17T06:12:04.960Z,29.67
2023-04-17T06:14:57.622Z,28.00
2023-04-17T06:17:46.483Z,27.67
2023-04-17T06:20:35.610Z,25.77
2023-04-17T06:23:24.704Z,29.65
2023-04-17T06:26:14.131Z,31.13
2023-04-17T06:29:04.060Z,27.10
2023-04-17T06:31:55.930Z,24.23
2023-04-17T06:34:58.597Z,27.85
2023-04-17T06:38:01.452Z,25.70
2023-04-17T06:40:52.128Z,25.45
2023-04-17T06:43:41.957Z,30.30
2023-04-17T06:46:37.021Z,25.85
2023-04-17T06:49:27.522Z,27.13
2023-04-17T06:52:17.872Z,27.23
2023-04-17T06:55:08.539Z,27.92
2023-04-17T06:57:57.207Z,25.42
2023-04-17T07:00:45.958Z,26.27
2023-04-17T07:03:35.160Z,24.60
2023-04-17T07:06:26.760Z,28.90
2023-04-17T07:09:15.545Z,28.35
2023-04-17T07:12:05.038Z,23.40
2023-04-17T07:14:53.937Z,23.60
2023-04-17T07:17:42.750Z,24.10
2023-04-17T07:20:32.166Z,26.33
2023-04-17T07:23:22.276Z,27.58
2023-04-17T07:26:13.000Z,26.35
2023-04-17T07:29:02.019Z,29.70
2023-04-17T07:31:50.787Z,27.65
2023-04-17T07:34:41.391Z,32.30
2023-04-17T07:37:30.214Z,27.15
2023-04-17T07:40:20.620Z,23.73
2023-04-17T07:43:10.494Z,24.50
2023-04-17T07:45:59.335Z,24.15
2023-04-17T07:48:48.268Z,25.25
2023-04-17T07:51:38.452Z,24.27
2023-04-17T07:54:27.562Z,23.30
2023-04-17T07:57:22.276Z,23.48
2023-04-17T08:00:15.354Z,22.38
2023-04-17T08:03:04.536Z,23.98
2023-04-17T08:05:54.314Z,22.58
2023-04-17T08:08:47.546Z,22.33
2023-04-17T08:11:49.577Z,22.50
2023-04-17T08:14:46.246Z,21.40
2023-04-17T08:17:35.193Z,21.17
2023-04-17T08:20:24.608Z,20.73
2023-04-17T08:23:13.536Z,22.90
2023-04-17T08:26:02.494Z,21.42
2023-04-17T08:28:53.797Z,23.55
2023-04-17T08:31:44.210Z,21.05
2023-04-17T08:34:33.403Z,24.60
2023-04-17T08:37:36.226Z,22.20
2023-04-17T08:40:47.378Z,19.95
2023-04-17T08:43:39.163Z,21.27
2023-04-17T08:46:28.573Z,20.90
2023-04-17T08:49:18.868Z,22.33
2023-04-17T08:52:08.285Z,19.63
2023-04-17T08:54:57.207Z,20.90
2023-04-17T08:57:56.507Z,20.15
2023-04-17T09:00:46.551Z,19.65
2023-04-17T09:03:42.951Z,18.60
2023-04-17T09:06:53.066Z,18.45
2023-04-17T09:09:51.483Z,17.65
2023-04-17T09:12:42.172Z,15.27
2023-04-17T09:15:31.136Z,16.17
2023-04-17T09:18:26.837Z,17.65
2023-04-17T09:21:18.782Z,18.60
2023-04-17T09:24:10.221Z,22.95
2023-04-17T09:27:22.792Z,18.02
2023-04-17T09:30:12.069Z,17.80
2023-04-17T09:33:12.192Z,18.70
2023-04-17T09:36:22.239Z,15.90
2023-04-17T09:39:21.052Z,14.43
2023-04-17T09:42:10.496Z,16.83
2023-04-17T09:44:59.232Z,18.67
2023-04-17T09:47:49.142Z,19.23
2023-04-17T09:50:38.964Z,16.20
2023-04-17T09:53:28.229Z,17.55
2023-04-17T09:56:22.011Z,16.52
2023-04-17T09:59:11.177Z,15.82
2023-04-17T10:02:00.408Z,13.70
2023-04-17T10:04:49.606Z,16.38
2023-04-17T10:07:40.207Z,16.10
2023-04-17T10:10:31.499Z,16.85
2023-04-17T10:13:27.258Z,18.70
2023-04-17T10:16:16.635Z,15.88
2023-04-17T10:19:29.150Z,17.13
2023-04-17T10:22:34.140Z,16.55
2023-04-17T10:25:24.891Z,17.08
2023-04-17T10:28:13.823Z,15.52
2023-04-17T10:31:04.175Z,15.52
2023-04-17T10:33:54.416Z,18.23
2023-04-17T10:36:52.656Z,17.13
2023-04-17T10:39:52.790Z,16.75
2023-04-17T10:42:41.703Z,16.85
2023-04-17T10:45:53.742Z,17.85
2023-04-17T10:48:52.420Z,17.38
2023-04-17T10:51:42.922Z,14.32
2023-04-17T10:54:34.451Z,17.35
2023-04-17T10:57:53.624Z,15.05
2023-04-17T11:00:53.087Z,15.40
2023-04-17T11:03:43.442Z,16.00
2023-04-17T11:06:37.872Z,15.32
2023-04-17T11:09:28.732Z,12.98
2023-04-17T11:12:17.574Z,13.48
2023-04-17T11:15:08.121Z,13.95
2023-04-17T11:17:57.965Z,14.35
2023-04-17T11:20:47.434Z,11.90
2023-04-17T11:23:37.974Z,16.00
2023-04-17T11:26:26.754Z,12.35
2023-04-17T11:29:16.876Z,10.68
2023-04-17T11:32:06.347Z,59.30
2023-04-17T11:34:56.656Z,10.07
2023-04-17T11:38:07.148Z,11.80
2023-04-17T11:40:59.741Z,11.32
2023-04-17T11:43:48.484Z,11.88
2023-04-17T11:46:37.710Z,14.25
2023-04-17T11:49:27.557Z,9.90
2023-04-17T11:52:18.076Z,11.10
2023-04-17T11:55:10.695Z,10.65
2023-04-17T11:58:02.233Z,10.82
2023-04-17T12:01:06.320Z,14.88
2023-04-17T12:03:56.554Z,12.38
2023-04-17T12:06:45.379Z,13.38
2023-04-17T12:09:35.645Z,12.27
2023-04-17T12:12:24.409Z,11.38
2023-04-17T12:15:14.806Z,10.38
2023-04-17T12:18:06.035Z,10.57
2023-04-17T12:20:54.850Z,12.18
2023-04-17T12:23:44.109Z,10.27
2023-04-17T12:26:32.995Z,10.38
2023-04-17T12:29:32.742Z,9.82
2023-04-17T12:32:32.447Z,9.00
2023-04-17T12:35:21.616Z,10.93
2023-04-17T12:38:10.448Z,10.25
2023-04-17T12:40:59.437Z,9.40
2023-04-17T12:43:48.169Z,10.98
2023-04-17T12:46:37.174Z,15.02
2023-04-17T12:49:27.429Z,13.13
2023-04-17T12:52:16.724Z,13.10
2023-04-17T12:55:07.605Z,16.25
2023-04-17T12:57:56.348Z,11.95
2023-04-17T13:00:45.440Z,9.90
2023-04-17T13:03:34.281Z,9.32
2023-04-17T13:06:24.395Z,15.20
2023-04-17T13:09:13.435Z,10.48
2023-04-17T13:12:02.551Z,8.85
2023-04-17T13:14:51.448Z,11.20
2023-04-17T13:17:40.174Z,10.80
2023-04-17T13:20:29.011Z,11.82
2023-04-17T13:23:19.302Z,8.52
2023-04-17T13:26:08.096Z,9.80
2023-04-17T13:28:56.931Z,7.05
2023-04-17T13:31:45.771Z,7.45
2023-04-17T13:34:34.424Z,8.25
2023-04-17T13:37:23.219Z,9.30
2023-04-17T13:40:15.308Z,6.38
2023-04-17T13:43:06.159Z,8.57
2023-04-17T13:45:56.895Z,6.57
2023-04-17T13:48:45.925Z,7.55
2023-04-17T13:51:34.714Z,8.85
2023-04-17T13:54:23.690Z,8.00
2023-04-17T13:57:14.855Z,8.20
2023-04-17T14:00:04.169Z,8.55
2023-04-17T14:02:53.425Z,7.32
2023-04-17T14:05:42.215Z,9.55
2023-04-17T14:08:31.108Z,5.85
2023-04-17T14:11:19.811Z,8.85
2023-04-17T14:14:10.133Z,10.55
2023-04-17T14:16:58.971Z,6.50
2023-04-17T14:19:47.842Z,8.35
2023-04-17T14:22:36.874Z,8.77
2023-04-17T14:25:25.686Z,7.30
2023-04-17T14:28:14.922Z,6.38
2023-04-17T14:31:08.738Z,13.48
2023-04-17T14:33:57.465Z,6.47
2023-04-17T14:36:46.442Z,9.82
2023-04-17T14:39:35.262Z,7.95
2023-04-17T14:42:24.161Z,9.27
2023-04-17T14:45:13.102Z,9.43
2023-04-17T14:48:03.947Z,8.23
2023-04-17T14:50:52.875Z,6.68
2023-04-17T14:53:42.307Z,9.20
2023-04-17T14:56:31.375Z,9.40
2023-04-17T14:59:20.295Z,6.88
2023-04-17T15:02:09.434Z,11.45
2023-04-17T15:04:59.588Z,8.27
2023-04-17T15:07:48.791Z,7.50
2023-04-17T15:10:50.219Z,8.30
2023-04-17T15:13:40.648Z,8.38
2023-04-17T15:16:29.760Z,7.60
2023-04-17T15:19:22.518Z,10.07
2023-04-17T15:22:12.840Z,6.68
2023-04-17T15:25:01.680Z,7.25
2023-04-17T15:27:52.439Z,7.90
2023-04-17T15:30:41.344Z,7.78
2023-04-17T15:33:31.050Z,11.70
2023-04-17T15:36:19.960Z,7.75
2023-04-17T15:39:10.103Z,9.07
2023-04-17T15:41:59.285Z,7.63
2023-04-17T15:44:48.032Z,8.32
2023-04-17T15:47:36.817Z,10.23
2023-04-17T15:50:25.684Z,8.02
2023-04-17T15:53:14.459Z,7.88
2023-04-17T15:56:07.007Z,7.85
2023-04-17T15:58:55.905Z,7.05
2023-04-17T16:01:48.415Z,8.20
2023-04-17T16:04:39.216Z,8.30
2023-04-17T16:07:28.193Z,7.72
2023-04-17T16:10:16.984Z,10.13
2023-04-17T16:13:07.159Z,7.63
2023-04-17T16:15:55.946Z,10.30
2023-04-17T16:18:47.768Z,9.25
2023-04-17T16:21:39.622Z,9.48
2023-04-17T16:24:31.222Z,7.95
2023-04-17T16:27:20.100Z,9.20
2023-04-17T16:30:11.753Z,9.02
2023-04-17T16:33:00.913Z,9.18
2023-04-17T16:35:49.805Z,8.95
2023-04-17T16:38:38.985Z,11.52
2023-04-17T16:41:28.680Z,9.38
2023-04-17T16:44:18.621Z,8.45
2023-04-17T16:47:13.935Z,8.95
2023-04-17T16:50:03.774Z,8.18
2023-04-17T16:52:52.429Z,8.65
2023-04-17T16:55:41.251Z,8.88
2023-04-17T16:58:29.934Z,8.38
2023-04-17T17:01:18.734Z,7.32
2023-04-17T17:04:09.160Z,8.82
2023-04-17T17:06:57.992Z,6.85
2023-04-17T17:09:46.815Z,7.22
2023-04-17T17:12:36.113Z,6.43
2023-04-17T17:15:25.329Z,6.05
2023-04-17T17:18:14.110Z,5.75
2023-04-17T17:21:05.023Z,7.47
2023-04-17T17:23:53.852Z,8.35
2023-04-17T17:26:42.554Z,8.68
2023-04-17T17:29:31.397Z,8.55
2023-04-17T17:32:20.281Z,7.78
2023-04-17T17:35:10.027Z,9.60
2023-04-17T17:38:00.217Z,7.97
2023-04-17T17:40:49.031Z,9.50
2023-04-17T17:43:38.207Z,7.75
2023-04-17T17:46:27.881Z,8.35
2023-04-17T17:49:17.545Z,8.23
2023-04-17T17:52:06.643Z,9.43
2023-04-17T17:54:57.044Z,7.68
2023-04-17T17:57:49.206Z,8.48
2023-04-17T18:00:38.654Z,8.88
2023-04-17T18:03:27.796Z,8.43
2023-04-17T18:06:16.757Z,9.57
2023-04-17T18:09:05.682Z,10.27
2023-04-17T18:11:55.874Z,8.70
2023-04-17T18:14:44.802Z,9.65
2023-04-17T18:17:33.884Z,9.65
2023-04-17T18:20:23.904Z,9.85
2023-04-17T18:23:12.773Z,9.35
2023-04-17T18:26:02.770Z,9.05
2023-04-17T18:28:53.094Z,11.00
2023-04-17T18:31:41.974Z,8.55
2023-04-17T18:34:31.150Z,8.00
2023-04-17T18:37:19.919Z,8.13
2023-04-17T18:40:10.677Z,9.45
2023-04-17T18:42:59.504Z,8.68
2023-04-17T18:45:49.745Z,8.57
2023-04-17T18:48:38.584Z,8.30
2023-04-17T18:51:27.367Z,8.50
2023-04-17T18:54:16.743Z,11.55
2023-04-17T18:57:05.805Z,9.05
2023-04-17T18:59:54.714Z,10.02
2023-04-17T19:02:45.207Z,8.68
2023-04-17T19:05:36.690Z,8.88
2023-04-17T19:08:25.532Z,10.60
2023-04-17T19:11:14.420Z,10.10
2023-04-17T19:14:03.501Z,8.43
2023-04-17T19:16:53.486Z,9.25
2023-04-17T19:19:43.766Z,9.15
2023-04-17T19:22:32.528Z,8.88
2023-04-17T19:25:21.614Z,10.48
2023-04-17T19:28:11.579Z,10.73
2023-04-17T19:31:01.140Z,9.23
2023-04-17T19:33:49.873Z,8.73
2023-04-17T19:36:40.081Z,10.80
2023-04-17T19:39:29.634Z,9.13
2023-04-17T19:42:18.484Z,10.40
2023-04-17T19:45:08.348Z,11.63
2023-04-17T19:47:57.418Z,11.52
2023-04-17T19:50:46.370Z,11.20
2023-04-17T19:53:38.440Z,14.00
2023-04-17T19:56:27.182Z,13.95
2023-04-17T19:59:16.092Z,13.40
2023-04-17T20:02:05.040Z,13.40
2023-04-17T20:04:54.066Z,11.75
2023-04-17T20:07:42.935Z,12.93
2023-04-17T20:10:33.720Z,12.00
2023-04-17T20:13:22.679Z,12.95
2023-04-17T20:16:11.453Z,12.73
2023-04-17T20:19:00.190Z,13.18
2023-04-17T20:21:49.213Z,13.02
2023-04-17T20:24:38.261Z,16.10
2023-04-17T20:27:28.656Z,13.45
2023-04-17T20:30:17.788Z,15.70
2023-04-17T20:33:06.913Z,15.20
2023-04-17T20:35:55.915Z,14.68
2023-04-17T20:38:44.800Z,13.00
2023-04-17T20:41:34.016Z,14.23
2023-04-17T20:44:25.472Z,14.75
2023-04-17T20:47:14.351Z,15.48
2023-04-17T20:50:03.476Z,14.68
2023-04-17T20:52:52.360Z,14.48
2023-04-17T20:55:41.164Z,18.75
2023-04-17T20:58:29.863Z,17.92
2023-04-17T21:01:20.618Z,16.88
2023-04-17T21:04:11.486Z,17.52
2023-04-17T21:07:00.752Z,18.73
2023-04-17T21:09:50.014Z,17.02
2023-04-17T21:12:38.841Z,14.85
2023-04-17T21:15:27.634Z,17.73
2023-04-17T21:18:17.781Z,17.98
2023-04-17T21:21:06.845Z,16.88
2023-04-17T21:23:55.845Z,17.48
2023-04-17T21:26:44.690Z,16.23
2023-04-17T21:29:33.584Z,17.48
2023-04-17T21:32:22.404Z,14.35
2023-04-17T21:35:12.652Z,19.35
2023-04-17T21:38:01.507Z,20.80
2023-04-17T21:40:51.796Z,14.73
2023-04-17T21:43:40.614Z,17.98
2023-04-17T21:46:29.355Z,17.83
2023-04-17T21:49:18.295Z,19.35
2023-04-17T21:52:08.787Z,19.25
2023-04-17T21:55:02.958Z,17.95
2023-04-17T21:57:51.860Z,19.52
2023-04-17T22:00:41.266Z,19.48
2023-04-17T22:03:30.209Z,17.67
2023-04-17T22:06:19.025Z,20.65
2023-04-17T22:09:09.982Z,20.05
2023-04-17T22:11:58.834Z,20.27
2023-04-17T22:14:48.410Z,21.70
2023-04-17T22:17:37.184Z,19.70
2023-04-17T22:20:26.130Z,20.65
2023-04-17T22:23:14.839Z,21.45
2023-04-17T22:26:05.433Z,20.70
2023-04-17T22:28:54.401Z,21.85
2023-04-17T22:31:43.160Z,20.67
2023-04-17T22:34:32.041Z,19.15
2023-04-17T22:37:20.837Z,22.65
2023-04-17T22:40:10.735Z,22.50
2023-04-17T22:43:01.109Z,21.88
2023-04-17T22:46:11.735Z,21.90
2023-04-17T22:49:01.012Z,21.63
2023-04-17T22:51:49.812Z,28.90
2023-04-17T22:54:38.721Z,21.02
2023-04-17T22:57:27.510Z,22.65
2023-04-17T23:00:20.300Z,25.13
2023-04-17T23:03:09.841Z,23.95
2023-04-17T23:05:58.789Z,26.20
2023-04-17T23:08:47.570Z,23.45
2023-04-17T23:11:36.281Z,27.02
2023-04-17T23:14:26.459Z,25.05
2023-04-17T23:17:16.629Z,26.23
2023-04-17T23:20:08.604Z,24.50
2023-04-17T23:22:57.451Z,26.48
2023-04-17T23:25:46.418Z,24.08
2023-04-17T23:28:35.314Z,25.25
2023-04-17T23:31:24.104Z,27.73
2023-04-17T23:34:14.681Z,27.45
2023-04-17T23:37:03.793Z,25.63
2023-04-17T23:39:52.623Z,24.65
2023-04-17T23:42:42.214Z,24.08
2023-04-17T23:45:30.928Z,25.80
2023-04-17T23:48:19.784Z,26.42
2023-04-17T23:51:10.117Z,27.20
2023-04-17T23:54:00.417Z,25.17
2023-04-17T23:56:49.357Z,25.77
2023-04-17T23:59:38.118Z,22.90
